Terminal Aerodrome Forecast
Issued by NWS

Home | Current Version | Previous Version | Text Only | Print | Product List | Glossary On
Versions: 1 2 3 4 5 6 7 8 9 10 11 12
000
FTUS45 KGGW 301724
TAFSDY
TAF
KSDY 301724Z 3018/3118 17007KT P6SM BKN090
     FM310000 11006KT P6SM VCSH OVC070
     FM311100 08006KT P6SM VCSH OVC030
     FM311200 08006KT P6SM VCSH OVC015=

USA.gov is the U.S. government's official web portal to all federal, state and local government web resources and services.